Time;durP1;ratioP1;P1;durP2;ratioP2;P2;SDS_P1;SDS_P2;PMS_P1;PMS_P2;Temp;Humidity;BMP_temperature;BMP_pressure;BME280_temperature;BME280_humidity;BME280_pressure;Samples;Min_cycle;Max_cycle;Signal;HPM_P1;HPM_P2
2023/07/17 00:00:18;;;;;;;;;;;23.90;59.40;;;;;;5003560;28;19918;-38
2023/07/17 00:02:44;;;;;;;;;;;23.90;59.50;;;;;;5003046;28;20472;-39
2023/07/17 00:05:10;;;;;;;;;;;23.80;59.30;;;;;;5003300;28;19918;-39
2023/07/17 00:07:37;;;;;;;;;;;23.80;59.60;;;;;;4990242;28;19922;-39
2023/07/17 00:10:03;;;;;;;;;;;23.80;59.10;;;;;;4988381;28;19989;-39
2023/07/17 00:12:30;;;;;;;;;;;23.80;59.20;;;;;;4989285;28;19910;-38
2023/07/17 00:14:56;;;;;;;;;;;23.80;58.70;;;;;;4990401;28;20023;-39
2023/07/17 00:17:22;;;;;;;;;;;23.70;58.60;;;;;;4991266;28;20655;-39
2023/07/17 00:19:54;;;;;;;;;;;23.70;58.30;;;;;;4991240;28;19910;-38
2023/07/17 00:22:21;;;;;;;;;;;23.70;58.90;;;;;;4991058;28;19976;-38
2023/07/17 00:24:46;;;;;;;;;;;23.70;58.30;;;;;;4984117;28;20426;-38
2023/07/17 00:27:12;;;;;;;;;;;23.70;58.40;;;;;;4990648;28;19925;-39
2023/07/17 00:29:40;;;;;;;;;;;23.60;58.30;;;;;;5010872;28;20292;-38
2023/07/17 00:32:06;;;;;;;;;;;23.60;58.70;;;;;;5070756;28;19913;-39
2023/07/17 00:34:32;;;;;;;;;;;23.60;58.70;;;;;;5070936;28;19950;-38
2023/07/17 00:36:58;;;;;;;;;;;23.60;59.10;;;;;;5078678;28;19916;-38
2023/07/17 00:39:24;;;;;;;;;;;23.60;59.20;;;;;;5084523;28;19908;-39
2023/07/17 00:41:50;;;;;;;;;;;23.60;59.10;;;;;;5076797;28;19947;-38
2023/07/17 00:44:16;;;;;;;;;;;23.50;60.90;;;;;;5084967;28;19919;-38
2023/07/17 00:46:42;;;;;;;;;;;23.50;62.10;;;;;;5083731;28;19915;-38
2023/07/17 00:49:08;;;;;;;;;;;23.50;62.30;;;;;;5083503;28;19908;-38
2023/07/17 00:51:35;;;;;;;;;;;23.50;62.40;;;;;;5084340;28;19923;-39
2023/07/17 00:54:01;;;;;;;;;;;23.50;62.70;;;;;;5049268;28;19912;-39
2023/07/17 00:56:29;;;;;;;;;;;23.50;62.80;;;;;;5084582;28;20440;-38
2023/07/17 00:58:56;;;;;;;;;;;23.50;63.00;;;;;;5066657;28;19986;-39
2023/07/17 01:01:22;;;;;;;;;;;23.50;63.20;;;;;;5084354;28;19938;-39
2023/07/17 01:03:48;;;;;;;;;;;23.50;63.30;;;;;;5083680;28;19919;-38
2023/07/17 01:06:13;;;;;;;;;;;23.60;63.50;;;;;;5079898;28;20355;-37
2023/07/17 01:08:40;;;;;;;;;;;23.60;63.70;;;;;;5067698;28;19944;-38
2023/07/17 01:11:06;;;;;;;;;;;23.60;63.80;;;;;;5067811;28;19908;-38
2023/07/17 01:13:42;;;;;;;;;;;23.60;64.10;;;;;;5070847;28;19912;-39
2023/07/17 01:16:07;;;;;;;;;;;23.60;64.20;;;;;;5072274;28;19927;-39
2023/07/17 01:18:33;;;;;;;;;;;23.60;64.40;;;;;;5066104;28;19931;-38
2023/07/17 01:20:59;;;;;;;;;;;23.60;64.50;;;;;;5070642;28;20007;-39
2023/07/17 01:23:25;;;;;;;;;;;23.60;64.60;;;;;;5067652;28;19920;-40
2023/07/17 01:25:54;;;;;;;;;;;23.70;64.80;;;;;;5066321;28;19909;-39
2023/07/17 01:28:20;;;;;;;;;;;23.70;64.90;;;;;;5068300;28;19916;-39
2023/07/17 01:30:46;;;;;;;;;;;23.70;64.90;;;;;;5073037;28;19943;-39
2023/07/17 01:33:12;;;;;;;;;;;23.70;65.00;;;;;;5067978;28;23924;-39
2023/07/17 01:35:37;;;;;;;;;;;23.70;65.00;;;;;;5069066;28;19908;-38
2023/07/17 01:38:03;;;;;;;;;;;23.70;65.10;;;;;;5083447;28;19913;-39
2023/07/17 01:40:29;;;;;;;;;;;23.80;65.10;;;;;;5081263;28;19912;-38
2023/07/17 01:42:55;;;;;;;;;;;23.80;65.30;;;;;;5082684;28;19920;-39
2023/07/17 01:45:21;;;;;;;;;;;23.80;65.40;;;;;;5083504;28;19912;-39
2023/07/17 01:47:47;;;;;;;;;;;23.80;65.50;;;;;;5083108;28;20437;-38
2023/07/17 01:50:13;;;;;;;;;;;23.80;65.60;;;;;;5083179;28;19912;-38
2023/07/17 01:52:39;;;;;;;;;;;23.80;65.70;;;;;;5081481;28;19962;-39
2023/07/17 01:55:05;;;;;;;;;;;23.80;65.70;;;;;;5083077;28;19912;-38
2023/07/17 01:57:31;;;;;;;;;;;23.80;66.00;;;;;;5083472;28;19926;-39
2023/07/17 01:59:57;;;;;;;;;;;23.90;65.80;;;;;;5082929;28;20370;-38
2023/07/17 02:02:22;;;;;;;;;;;23.90;65.90;;;;;;5083341;28;19962;-38
2023/07/17 02:04:48;;;;;;;;;;;23.90;65.80;;;;;;5082475;28;20402;-38
2023/07/17 02:07:14;;;;;;;;;;;23.90;66.00;;;;;;5082236;28;19929;-39
2023/07/17 02:09:40;;;;;;;;;;;23.90;66.00;;;;;;5082604;28;19920;-38
2023/07/17 02:12:06;;;;;;;;;;;24.00;66.10;;;;;;5082991;28;19935;-39
2023/07/17 02:14:32;;;;;;;;;;;24.00;66.10;;;;;;5082507;28;19919;-39
2023/07/17 02:16:58;;;;;;;;;;;24.00;66.20;;;;;;5082793;28;19912;-39
2023/07/17 02:19:24;;;;;;;;;;;24.00;66.20;;;;;;5081042;28;19912;-39
2023/07/17 02:21:50;;;;;;;;;;;24.00;66.20;;;;;;5081919;28;19924;-39
2023/07/17 02:24:16;;;;;;;;;;;24.00;66.30;;;;;;5082725;28;20102;-38
2023/07/17 02:26:42;;;;;;;;;;;24.00;66.40;;;;;;5082520;28;19988;-38
2023/07/17 02:29:08;;;;;;;;;;;24.00;66.60;;;;;;5081658;28;19908;-39
2023/07/17 02:31:34;;;;;;;;;;;24.00;66.80;;;;;;5082581;28;19958;-39
2023/07/17 02:34:00;;;;;;;;;;;24.00;66.90;;;;;;5081359;28;19916;-39
2023/07/17 02:36:26;;;;;;;;;;;24.10;67.00;;;;;;5074334;28;19991;-37
2023/07/17 02:38:52;;;;;;;;;;;24.10;67.20;;;;;;5068679;28;20013;-38
2023/07/17 02:41:18;;;;;;;;;;;24.10;67.20;;;;;;5049222;28;19909;-37
2023/07/17 02:43:44;;;;;;;;;;;24.10;67.10;;;;;;5063980;28;19934;-38
2023/07/17 02:46:10;;;;;;;;;;;24.10;67.20;;;;;;5067037;28;19920;-38
2023/07/17 02:48:36;;;;;;;;;;;24.10;67.10;;;;;;5065108;28;19916;-38
2023/07/17 02:51:03;;;;;;;;;;;24.10;67.60;;;;;;5067051;28;19916;-39
2023/07/17 02:53:29;;;;;;;;;;;24.10;66.70;;;;;;5065684;28;20254;-38
2023/07/17 02:55:55;;;;;;;;;;;24.10;66.50;;;;;;5069454;28;19919;-38
2023/07/17 02:58:21;;;;;;;;;;;24.10;66.60;;;;;;5067928;28;19999;-39
2023/07/17 03:00:49;;;;;;;;;;;24.10;66.50;;;;;;5064992;28;19909;-38
2023/07/17 03:03:15;;;;;;;;;;;24.10;66.60;;;;;;5068250;28;19916;-38
2023/07/17 03:05:41;;;;;;;;;;;24.10;66.70;;;;;;5053066;28;19911;-38
2023/07/17 03:08:08;;;;;;;;;;;24.10;66.90;;;;;;5085649;28;20655;-38
2023/07/17 03:10:34;;;;;;;;;;;24.20;67.20;;;;;;5067821;28;19962;-38
2023/07/17 03:13:00;;;;;;;;;;;24.20;67.30;;;;;;5086498;28;19920;-38
2023/07/17 03:15:29;;;;;;;;;;;24.20;67.30;;;;;;5086041;28;19916;-39
2023/07/17 03:17:55;;;;;;;;;;;24.20;67.40;;;;;;5086122;28;20561;-38
2023/07/17 03:20:21;;;;;;;;;;;24.20;67.50;;;;;;5085723;28;19915;-38
2023/07/17 03:22:48;;;;;;;;;;;24.20;67.60;;;;;;5084559;28;19994;-39
2023/07/17 03:25:14;;;;;;;;;;;24.20;67.60;;;;;;5085725;28;20378;-38
2023/07/17 03:27:40;;;;;;;;;;;24.20;67.60;;;;;;5085834;28;20023;-39
2023/07/17 03:30:07;;;;;;;;;;;24.20;67.60;;;;;;5078907;28;19947;-38
2023/07/17 03:32:33;;;;;;;;;;;24.20;67.40;;;;;;5085849;28;19912;-38
2023/07/17 03:34:59;;;;;;;;;;;24.20;67.30;;;;;;5085434;28;20246;-38
2023/07/17 03:37:25;;;;;;;;;;;24.20;67.20;;;;;;5071364;28;19913;-37
2023/07/17 03:39:53;;;;;;;;;;;24.20;67.10;;;;;;5076167;28;19908;-38
2023/07/17 03:42:19;;;;;;;;;;;24.20;66.90;;;;;;5071683;28;19920;-38
2023/07/17 03:44:45;;;;;;;;;;;24.20;66.90;;;;;;5069537;28;19912;-38
2023/07/17 03:47:11;;;;;;;;;;;24.20;67.10;;;;;;5070218;28;19972;-37
2023/07/17 03:49:37;;;;;;;;;;;24.20;67.30;;;;;;5072575;28;19935;-39
2023/07/17 03:52:03;;;;;;;;;;;24.20;67.40;;;;;;5070363;28;19939;-38
2023/07/17 03:54:29;;;;;;;;;;;24.20;67.50;;;;;;5067226;28;19908;-39
2023/07/17 03:56:55;;;;;;;;;;;24.20;67.70;;;;;;5071680;28;19919;-38
2023/07/17 03:59:24;;;;;;;;;;;24.20;67.90;;;;;;5072533;28;20296;-38
2023/07/17 04:01:50;;;;;;;;;;;24.30;67.90;;;;;;5073073;28;19963;-39
2023/07/17 04:04:16;;;;;;;;;;;24.20;67.80;;;;;;5071073;28;19913;-38
2023/07/17 04:06:41;;;;;;;;;;;24.20;67.70;;;;;;5079297;28;20002;-39
2023/07/17 04:09:07;;;;;;;;;;;24.20;67.50;;;;;;5085047;28;19920;-38
2023/07/17 04:11:33;;;;;;;;;;;24.20;67.10;;;;;;5085347;28;19945;-38
2023/07/17 04:13:59;;;;;;;;;;;24.20;66.60;;;;;;5083710;28;19908;-39
2023/07/17 04:16:26;;;;;;;;;;;24.20;66.50;;;;;;5083665;28;19919;-38
2023/07/17 04:18:52;;;;;;;;;;;24.20;66.60;;;;;;5084845;28;19947;-38
2023/07/17 04:21:18;;;;;;;;;;;24.20;66.50;;;;;;5084753;28;20532;-38
2023/07/17 04:23:48;;;;;;;;;;;24.20;66.50;;;;;;5084762;28;19913;-39
2023/07/17 04:26:14;;;;;;;;;;;24.30;66.40;;;;;;5084933;28;19908;-39
2023/07/17 04:28:40;;;;;;;;;;;24.20;66.50;;;;;;5084730;28;19923;-38
2023/07/17 04:31:06;;;;;;;;;;;24.20;66.50;;;;;;5077598;28;19908;-38
2023/07/17 04:33:35;;;;;;;;;;;24.20;66.40;;;;;;5084763;28;19935;-38
2023/07/17 04:36:05;;;;;;;;;;;24.20;66.30;;;;;;5081883;28;19912;-38
2023/07/17 04:38:31;;;;;;;;;;;24.20;66.30;;;;;;5083138;28;19912;-38
2023/07/17 04:40:56;;;;;;;;;;;24.20;66.30;;;;;;5084502;28;19916;-38
2023/07/17 04:43:22;;;;;;;;;;;24.20;66.30;;;;;;5084811;28;19920;-39
2023/07/17 04:45:48;;;;;;;;;;;24.20;66.30;;;;;;5084009;28;20620;-38
2023/07/17 04:48:14;;;;;;;;;;;24.20;66.30;;;;;;5082442;28;19920;-38
2023/07/17 04:50:43;;;;;;;;;;;24.20;66.30;;;;;;5084225;28;20309;-39
2023/07/17 04:53:09;;;;;;;;;;;24.20;66.30;;;;;;5078131;28;19930;-38
2023/07/17 04:55:35;;;;;;;;;;;24.20;66.40;;;;;;5080903;28;20722;-38
2023/07/17 04:58:01;;;;;;;;;;;24.20;66.40;;;;;;5084498;28;19912;-38
2023/07/17 05:00:26;;;;;;;;;;;24.20;66.40;;;;;;5084476;28;19947;-38
2023/07/17 05:02:52;;;;;;;;;;;24.20;66.50;;;;;;5084105;28;19921;-39
2023/07/17 05:05:18;;;;;;;;;;;24.20;66.50;;;;;;5083842;28;20011;-38
2023/07/17 05:07:44;;;;;;;;;;;24.20;66.80;;;;;;5083456;28;19916;-38
2023/07/17 05:10:11;;;;;;;;;;;24.20;67.20;;;;;;5083938;28;19916;-38
2023/07/17 05:12:38;;;;;;;;;;;24.20;67.50;;;;;;5083340;28;19968;-38
2023/07/17 05:15:04;;;;;;;;;;;24.20;68.00;;;;;;5083987;28;19919;-38
2023/07/17 05:17:30;;;;;;;;;;;24.20;68.20;;;;;;5081547;28;19912;-38
2023/07/17 05:19:56;;;;;;;;;;;24.20;68.00;;;;;;5083471;28;19916;-39
2023/07/17 05:22:21;;;;;;;;;;;24.20;68.70;;;;;;5083788;28;19917;-38
2023/07/17 05:24:47;;;;;;;;;;;24.20;68.00;;;;;;5083496;28;19948;-38
2023/07/17 05:27:13;;;;;;;;;;;24.20;68.10;;;;;;5083238;28;19912;-38
2023/07/17 05:29:39;;;;;;;;;;;24.20;67.90;;;;;;5083714;28;19912;-38
2023/07/17 05:32:05;;;;;;;;;;;24.20;67.60;;;;;;5083542;28;19935;-39
2023/07/17 05:34:31;;;;;;;;;;;24.20;67.40;;;;;;5083323;28;19916;-38
2023/07/17 05:36:57;;;;;;;;;;;24.20;67.30;;;;;;5080556;28;19919;-38
2023/07/17 05:39:23;;;;;;;;;;;24.20;67.30;;;;;;5083337;28;19908;-38
2023/07/17 05:41:49;;;;;;;;;;;24.20;67.30;;;;;;5083376;28;19927;-38
2023/07/17 05:44:15;;;;;;;;;;;24.20;67.30;;;;;;5083347;28;19916;-38
2023/07/17 05:46:41;;;;;;;;;;;24.20;67.30;;;;;;5069976;28;19958;-38
2023/07/17 05:49:07;;;;;;;;;;;24.10;67.20;;;;;;5076387;28;19912;-39
2023/07/17 05:51:32;;;;;;;;;;;24.20;67.30;;;;;;5083559;28;19908;-38
2023/07/17 05:53:58;;;;;;;;;;;24.10;67.30;;;;;;5083500;28;20002;-38
2023/07/17 05:56:24;;;;;;;;;;;24.10;67.60;;;;;;5083089;28;19950;-38
2023/07/17 05:58:51;;;;;;;;;;;24.10;67.70;;;;;;5082221;28;19916;-39
2023/07/17 06:01:17;;;;;;;;;;;24.10;67.90;;;;;;5083024;28;19988;-38
2023/07/17 06:03:42;;;;;;;;;;;24.10;68.00;;;;;;5082838;28;19943;-38
2023/07/17 06:06:08;;;;;;;;;;;24.10;68.00;;;;;;5082981;28;20323;-38
2023/07/17 06:08:34;;;;;;;;;;;24.10;68.10;;;;;;5082433;28;19932;-38
2023/07/17 06:11:00;;;;;;;;;;;24.10;68.00;;;;;;5082923;28;19963;-38
2023/07/17 06:13:26;;;;;;;;;;;24.10;68.20;;;;;;5082975;28;19908;-37
2023/07/17 06:15:52;;;;;;;;;;;24.10;68.20;;;;;;5081729;28;19934;-38
2023/07/17 06:18:17;;;;;;;;;;;24.10;68.00;;;;;;5082741;28;19934;-38
2023/07/17 06:20:43;;;;;;;;;;;24.10;67.90;;;;;;5082797;28;20376;-38
2023/07/17 06:23:09;;;;;;;;;;;24.10;67.80;;;;;;5083135;28;20387;-38
2023/07/17 06:25:37;;;;;;;;;;;24.10;67.70;;;;;;5082347;28;19950;-39
2023/07/17 06:28:04;;;;;;;;;;;24.00;67.70;;;;;;5074582;28;19908;-38
2023/07/17 06:30:30;;;;;;;;;;;24.10;67.80;;;;;;5081426;28;20015;-39
2023/07/17 06:32:56;;;;;;;;;;;24.10;67.80;;;;;;5082560;28;19908;-38
2023/07/17 06:35:22;;;;;;;;;;;24.10;67.80;;;;;;5080692;28;20006;-38
2023/07/17 06:37:48;;;;;;;;;;;24.10;67.80;;;;;;5081835;28;19998;-38
2023/07/17 06:40:14;;;;;;;;;;;24.10;67.90;;;;;;5082419;28;19909;-38
2023/07/17 06:42:40;;;;;;;;;;;24.00;68.10;;;;;;5082472;28;19925;-39
2023/07/17 06:45:06;;;;;;;;;;;24.00;68.00;;;;;;5075739;28;19916;-38
2023/07/17 06:47:32;;;;;;;;;;;24.00;68.90;;;;;;5064289;28;19958;-38
2023/07/17 06:49:58;;;;;;;;;;;24.00;68.30;;;;;;5082072;28;19912;-38
2023/07/17 06:52:24;;;;;;;;;;;24.00;68.30;;;;;;5078676;28;19908;-38
2023/07/17 06:54:50;;;;;;;;;;;24.00;68.30;;;;;;5082175;28;19917;-38
2023/07/17 06:57:16;;;;;;;;;;;24.00;68.40;;;;;;5082239;28;19958;-38
2023/07/17 06:59:42;;;;;;;;;;;24.00;68.40;;;;;;5081765;28;19912;-38
2023/07/17 07:02:08;;;;;;;;;;;24.00;68.50;;;;;;5082547;28;19917;-38
2023/07/17 07:04:34;;;;;;;;;;;24.00;68.30;;;;;;5082090;28;19912;-39
2023/07/17 07:07:01;;;;;;;;;;;24.00;68.10;;;;;;5081743;28;19923;-38
2023/07/17 07:09:27;;;;;;;;;;;24.00;68.20;;;;;;5081942;28;19923;-38
2023/07/17 07:11:53;;;;;;;;;;;24.00;68.20;;;;;;5082158;28;19991;-38
2023/07/17 07:14:18;;;;;;;;;;;24.00;68.10;;;;;;5082465;28;19985;-38
2023/07/17 07:16:44;;;;;;;;;;;24.00;68.20;;;;;;5082024;28;19912;-38
2023/07/17 07:19:10;;;;;;;;;;;24.00;68.20;;;;;;5082020;28;19938;-39
2023/07/17 07:21:36;;;;;;;;;;;23.90;68.20;;;;;;5082013;28;19912;-38
2023/07/17 07:24:03;;;;;;;;;;;23.90;68.30;;;;;;5081695;28;19912;-38
2023/07/17 07:26:30;;;;;;;;;;;23.90;68.40;;;;;;5081552;28;19912;-38
2023/07/17 07:28:56;;;;;;;;;;;23.90;68.50;;;;;;5081867;28;19912;-38
2023/07/17 07:31:22;;;;;;;;;;;23.90;68.60;;;;;;5080362;28;19924;-38
2023/07/17 07:33:48;;;;;;;;;;;23.90;68.60;;;;;;5082214;28;19955;-38
2023/07/17 07:36:14;;;;;;;;;;;23.90;68.70;;;;;;5081022;28;20268;-38
2023/07/17 07:38:39;;;;;;;;;;;23.90;68.60;;;;;;5081638;28;19967;-38
2023/07/17 07:41:05;;;;;;;;;;;23.90;68.80;;;;;;5081687;28;19912;-38
2023/07/17 07:43:31;;;;;;;;;;;23.90;68.80;;;;;;5079077;28;19966;-38
2023/07/17 07:45:57;;;;;;;;;;;23.90;68.70;;;;;;5081503;28;19916;-38
2023/07/17 07:48:23;;;;;;;;;;;23.80;68.70;;;;;;5082298;28;19951;-39
2023/07/17 07:50:49;;;;;;;;;;;23.80;68.70;;;;;;5084198;28;20361;-38
2023/07/17 07:53:15;;;;;;;;;;;23.80;68.60;;;;;;5085812;28;19916;-38
2023/07/17 07:55:41;;;;;;;;;;;23.80;68.60;;;;;;5085153;28;19912;-38
2023/07/17 07:58:07;;;;;;;;;;;23.80;68.60;;;;;;5078707;28;19919;-38
2023/07/17 08:00:33;;;;;;;;;;;23.80;68.70;;;;;;5084171;28;19913;-38
2023/07/17 08:02:59;;;;;;;;;;;23.80;68.70;;;;;;5085280;28;19927;-38
2023/07/17 08:05:24;;;;;;;;;;;23.80;68.70;;;;;;5084807;28;19920;-38
2023/07/17 08:07:50;;;;;;;;;;;23.80;68.90;;;;;;5085132;28;19923;-38
2023/07/17 08:10:16;;;;;;;;;;;23.80;68.90;;;;;;5084243;28;19916;-39
2023/07/17 08:12:42;;;;;;;;;;;23.80;69.10;;;;;;5085237;28;19922;-38
2023/07/17 08:15:08;;;;;;;;;;;23.80;69.00;;;;;;5085325;28;19980;-38
2023/07/17 08:17:34;;;;;;;;;;;23.80;68.90;;;;;;5085009;28;19931;-38
2023/07/17 08:20:00;;;;;;;;;;;23.80;69.10;;;;;;5084391;28;20006;-38
2023/07/17 08:22:26;;;;;;;;;;;23.80;69.00;;;;;;5084669;28;19948;-38
2023/07/17 08:24:52;;;;;;;;;;;23.80;69.20;;;;;;5084946;28;19919;-38
2023/07/17 08:30:04;;;;;;;;;;;23.70;69.10;;;;;;5077244;28;19919;-38
2023/07/17 08:32:30;;;;;;;;;;;23.70;68.90;;;;;;5078974;28;20357;-38
2023/07/17 08:34:56;;;;;;;;;;;23.70;68.90;;;;;;5084123;28;19935;-38
2023/07/17 08:37:22;;;;;;;;;;;23.70;69.00;;;;;;5071194;28;19922;-38
2023/07/17 08:39:47;;;;;;;;;;;23.70;69.00;;;;;;5072137;28;19997;-38
2023/07/17 08:42:13;;;;;;;;;;;23.70;69.00;;;;;;5073096;28;19924;-38
2023/07/17 08:44:39;;;;;;;;;;;23.70;69.00;;;;;;5053520;28;19905;-38
2023/07/17 08:47:07;;;;;;;;;;;23.70;69.10;;;;;;5066421;28;19913;-38
2023/07/17 08:49:34;;;;;;;;;;;23.70;69.10;;;;;;5054819;28;19912;-38
2023/07/17 08:52:00;;;;;;;;;;;23.70;69.30;;;;;;5071666;28;19909;-38
2023/07/17 08:54:25;;;;;;;;;;;23.70;69.40;;;;;;5054007;28;19951;-38
2023/07/17 08:56:51;;;;;;;;;;;23.70;69.30;;;;;;5066885;28;19916;-38
2023/07/17 08:59:17;;;;;;;;;;;23.70;70.00;;;;;;5067249;28;19927;-38
2023/07/17 09:01:43;;;;;;;;;;;23.70;69.40;;;;;;5068826;28;19923;-38
2023/07/17 09:04:09;;;;;;;;;;;23.60;69.30;;;;;;5064616;28;19919;-37
2023/07/17 09:06:35;;;;;;;;;;;23.60;69.30;;;;;;5076079;28;19908;-38
2023/07/17 09:09:01;;;;;;;;;;;23.60;69.40;;;;;;5083782;28;19925;-38
2023/07/17 09:11:26;;;;;;;;;;;23.60;69.40;;;;;;5084132;28;19919;-38
2023/07/17 09:13:52;;;;;;;;;;;23.60;69.40;;;;;;5084083;28;19912;-38
2023/07/17 09:16:19;;;;;;;;;;;23.60;69.40;;;;;;5083854;28;19908;-38
2023/07/17 09:18:45;;;;;;;;;;;23.60;69.30;;;;;;5083661;28;19908;-37
2023/07/17 09:21:14;;;;;;;;;;;23.60;69.40;;;;;;5081885;28;20257;-38
2023/07/17 09:23:42;;;;;;;;;;;23.60;69.40;;;;;;5083783;28;19920;-38
2023/07/17 09:26:08;;;;;;;;;;;23.60;69.40;;;;;;5083447;28;19943;-38
2023/07/17 09:28:37;;;;;;;;;;;23.60;69.40;;;;;;5083518;28;19912;-38
2023/07/17 09:31:03;;;;;;;;;;;23.60;69.40;;;;;;5081857;28;19912;-38
2023/07/17 09:33:29;;;;;;;;;;;23.60;69.40;;;;;;5076858;28;19908;-38
2023/07/17 09:35:56;;;;;;;;;;;23.60;69.50;;;;;;5064305;28;20402;-37
2023/07/17 09:38:23;;;;;;;;;;;23.60;69.60;;;;;;5083696;28;20007;-38
2023/07/17 09:40:49;;;;;;;;;;;23.60;69.60;;;;;;5065502;28;20011;-38
2023/07/17 09:43:15;;;;;;;;;;;23.60;69.60;;;;;;5081059;28;19982;-38
2023/07/17 09:45:41;;;;;;;;;;;23.50;69.60;;;;;;5082347;28;19909;-38
2023/07/17 09:48:07;;;;;;;;;;;23.50;69.60;;;;;;5075879;28;19920;-38
2023/07/17 09:50:32;;;;;;;;;;;23.50;69.70;;;;;;5065205;28;19912;-38
2023/07/17 09:52:58;;;;;;;;;;;23.50;69.70;;;;;;5083050;28;19912;-38
2023/07/17 09:55:25;;;;;;;;;;;23.50;69.60;;;;;;5064825;28;19908;-38
2023/07/17 09:57:51;;;;;;;;;;;23.50;69.60;;;;;;5082405;28;19960;-38
2023/07/17 10:00:18;;;;;;;;;;;23.50;69.70;;;;;;5065166;28;19923;-38
2023/07/17 10:02:56;;;;;;;;;;;23.50;69.70;;;;;;5082581;28;19927;-38
2023/07/17 10:05:22;;;;;;;;;;;23.50;70.30;;;;;;5082814;28;19912;-38
2023/07/17 10:07:48;;;;;;;;;;;23.50;69.60;;;;;;5082345;28;19927;-37
2023/07/17 10:10:14;;;;;;;;;;;23.50;69.70;;;;;;5082970;28;19955;-38
2023/07/17 10:12:40;;;;;;;;;;;23.50;69.80;;;;;;5082374;28;19927;-37
2023/07/17 10:15:06;;;;;;;;;;;23.50;69.80;;;;;;5082052;28;19912;-38
2023/07/17 10:17:32;;;;;;;;;;;23.50;69.70;;;;;;5064906;28;19995;-38
2023/07/17 10:20:11;;;;;;;;;;;23.40;69.70;;;;;;5082705;28;19912;-39
2023/07/17 10:22:40;;;;;;;;;;;23.40;69.80;;;;;;5082810;28;19917;-37
2023/07/17 10:25:18;;;;;;;;;;;23.40;69.80;;;;;;5078367;28;19976;-38
2023/07/17 10:27:45;;;;;;;;;;;23.40;69.90;;;;;;5074141;28;19908;-37
2023/07/17 10:30:34;;;;;;;;;;;23.40;70.00;;;;;;5082804;28;19947;-38
2023/07/17 10:33:06;;;;;;;;;;;23.40;69.90;;;;;;5076520;28;19912;-38
2023/07/17 10:35:53;;;;;;;;;;;23.40;70.00;;;;;;5080608;28;19919;-38
2023/07/17 10:38:26;;;;;;;;;;;23.40;70.10;;;;;;5058496;28;19912;-38
2023/07/17 10:41:02;;;;;;;;;;;23.40;70.00;;;;;;5082371;28;19909;-38
2023/07/17 10:43:28;;;;;;;;;;;23.30;70.00;;;;;;5082556;28;19920;-38
2023/07/17 10:45:54;;;;;;;;;;;23.30;70.00;;;;;;5082124;28;19919;-38
2023/07/17 10:48:23;;;;;;;;;;;23.30;70.00;;;;;;5080920;28;19939;-38
2023/07/17 10:50:50;;;;;;;;;;;23.30;70.00;;;;;;5082144;28;19912;-38
2023/07/17 10:53:16;;;;;;;;;;;23.30;70.00;;;;;;5082621;28;19912;-38
2023/07/17 10:55:42;;;;;;;;;;;23.30;70.00;;;;;;5082201;28;19908;-38
2023/07/17 10:58:08;;;;;;;;;;;23.30;70.00;;;;;;5082222;28;19930;-38
2023/07/17 11:00:34;;;;;;;;;;;23.30;70.00;;;;;;5082360;28;19908;-37
2023/07/17 11:03:00;;;;;;;;;;;23.30;70.10;;;;;;5082379;28;19924;-38
2023/07/17 11:05:26;;;;;;;;;;;23.30;70.10;;;;;;5077681;28;20304;-38
2023/07/17 11:07:55;;;;;;;;;;;23.30;70.20;;;;;;5081832;28;19942;-38
2023/07/17 11:10:20;;;;;;;;;;;23.30;70.30;;;;;;5082156;28;19955;-37
2023/07/17 11:12:46;;;;;;;;;;;23.30;70.30;;;;;;5081985;28;19908;-38
2023/07/17 11:15:15;;;;;;;;;;;23.20;70.20;;;;;;5079607;28;19920;-38
2023/07/17 11:17:41;;;;;;;;;;;23.20;70.30;;;;;;5082175;28;19904;-38
2023/07/17 11:20:07;;;;;;;;;;;23.20;70.30;;;;;;5073885;28;19920;-37
2023/07/17 11:22:33;;;;;;;;;;;23.20;70.40;;;;;;5082110;28;19936;-38
2023/07/17 11:24:59;;;;;;;;;;;23.20;70.30;;;;;;5065234;28;19908;-37
2023/07/17 11:27:25;;;;;;;;;;;23.20;70.40;;;;;;5086055;28;20559;-38
2023/07/17 11:29:51;;;;;;;;;;;23.20;70.30;;;;;;5085592;28;20003;-38
2023/07/17 11:32:19;;;;;;;;;;;23.20;70.30;;;;;;5086129;28;19940;-38
2023/07/17 11:34:57;;;;;;;;;;;23.20;70.30;;;;;;5085898;28;19912;-38
2023/07/17 11:37:34;;;;;;;;;;;23.20;70.40;;;;;;5072860;28;19928;-38
2023/07/17 11:40:06;;;;;;;;;;;23.20;70.30;;;;;;5069260;28;20396;-39
2023/07/17 11:43:05;;;;;;;;;;;23.20;70.40;;;;;;5070174;28;19920;-38
2023/07/17 11:45:31;;;;;;;;;;;23.20;70.40;;;;;;5029606;28;19923;-37
2023/07/17 11:47:57;;;;;;;;;;;23.10;70.50;;;;;;5027672;28;19919;-38
2023/07/17 11:50:23;;;;;;;;;;;23.10;71.30;;;;;;5026305;28;20100;-38
2023/07/17 11:52:49;;;;;;;;;;;23.10;70.60;;;;;;5028568;28;20035;-38
2023/07/17 11:55:21;;;;;;;;;;;23.10;70.50;;;;;;5027820;28;19955;-38
2023/07/17 11:57:50;;;;;;;;;;;23.10;70.60;;;;;;5024838;28;19909;-38
2023/07/17 12:00:16;;;;;;;;;;;23.10;70.70;;;;;;5026719;28;19953;-37
2023/07/17 12:02:44;;;;;;;;;;;23.10;70.60;;;;;;5027985;28;19928;-38
2023/07/17 12:05:10;;;;;;;;;;;23.10;70.70;;;;;;5030734;28;19939;-38
2023/07/17 12:07:56;;;;;;;;;;;23.10;70.70;;;;;;5041408;28;20384;-37
2023/07/17 12:10:22;;;;;;;;;;;23.10;70.70;;;;;;5022465;28;19977;-38
2023/07/17 12:12:48;;;;;;;;;;;23.10;70.70;;;;;;5006208;28;19920;-38
2023/07/17 12:15:15;;;;;;;;;;;23.10;70.70;;;;;;5022805;28;19958;-39
2023/07/17 12:17:41;;;;;;;;;;;23.10;70.70;;;;;;5022378;28;20341;-38
2023/07/17 12:20:07;;;;;;;;;;;23.10;70.70;;;;;;5022224;28;20016;-38
2023/07/17 12:22:34;;;;;;;;;;;23.10;70.80;;;;;;5019921;28;20414;-38
2023/07/17 12:25:00;;;;;;;;;;;23.10;70.70;;;;;;5022206;28;19909;-38
2023/07/17 12:27:25;;;;;;;;;;;23.10;70.80;;;;;;5022129;28;19913;-38
2023/07/17 12:29:51;;;;;;;;;;;23.00;70.80;;;;;;5015813;28;19916;-38
2023/07/17 12:32:17;;;;;;;;;;;23.00;70.90;;;;;;5020747;28;19970;-38
2023/07/17 12:34:43;;;;;;;;;;;23.10;71.00;;;;;;5021973;28;19917;-38
2023/07/17 12:37:09;;;;;;;;;;;23.00;70.90;;;;;;5019529;28;19940;-38
2023/07/17 12:39:35;;;;;;;;;;;23.00;71.00;;;;;;5021769;28;19921;-38
2023/07/17 12:42:01;;;;;;;;;;;23.00;71.10;;;;;;5021913;28;19932;-38
2023/07/17 12:44:26;;;;;;;;;;;23.00;71.00;;;;;;5022429;28;19920;-38
2023/07/17 12:46:52;;;;;;;;;;;23.00;71.70;;;;;;5037450;28;19947;-38
2023/07/17 12:49:18;;;;;;;;;;;23.00;71.00;;;;;;5079298;28;19979;-38
2023/07/17 12:51:44;;;;;;;;;;;23.00;71.00;;;;;;5082305;28;19908;-39
2023/07/17 12:54:10;;;;;;;;;;;23.00;71.10;;;;;;5084728;28;19912;-38
2023/07/17 12:56:36;;;;;;;;;;;23.00;71.00;;;;;;5084156;28;19961;-38
2023/07/17 12:59:02;;;;;;;;;;;23.00;71.00;;;;;;5084391;28;20019;-38
2023/07/17 13:01:29;;;;;;;;;;;23.00;71.00;;;;;;5065413;28;19918;-38
2023/07/17 13:03:54;;;;;;;;;;;23.00;71.10;;;;;;5077459;28;21704;-38
2023/07/17 13:06:20;;;;;;;;;;;23.00;71.10;;;;;;5082354;28;19922;-38
2023/07/17 13:08:47;;;;;;;;;;;23.00;71.30;;;;;;5084053;28;20004;-38
2023/07/17 13:11:13;;;;;;;;;;;23.00;71.70;;;;;;5081166;28;19920;-38
2023/07/17 13:13:39;;;;;;;;;;;23.00;71.20;;;;;;5083854;28;19909;-38
2023/07/17 13:16:05;;;;;;;;;;;23.10;71.40;;;;;;5083881;28;19913;-38
2023/07/17 13:18:31;;;;;;;;;;;23.00;71.40;;;;;;5084418;28;20774;-38
2023/07/17 13:20:56;;;;;;;;;;;23.00;71.50;;;;;;5083050;28;20019;-38
2023/07/17 13:23:22;;;;;;;;;;;23.00;71.40;;;;;;5084117;28;20434;-38
2023/07/17 13:25:48;;;;;;;;;;;23.00;71.40;;;;;;5083279;28;19973;-38
2023/07/17 13:28:14;;;;;;;;;;;23.00;71.40;;;;;;5084027;28;19909;-38
2023/07/17 13:30:40;;;;;;;;;;;23.00;71.50;;;;;;5083428;28;19916;-38
2023/07/17 13:33:06;;;;;;;;;;;23.00;71.40;;;;;;5081039;28;19908;-38
2023/07/17 13:35:32;;;;;;;;;;;23.10;71.40;;;;;;5079484;28;19977;-38
2023/07/17 13:37:57;;;;;;;;;;;23.10;71.40;;;;;;5082433;28;19920;-38
2023/07/17 13:40:24;;;;;;;;;;;23.10;71.40;;;;;;5078114;28;19908;-38
2023/07/17 13:42:50;;;;;;;;;;;23.10;71.40;;;;;;5083140;28;19989;-38
2023/07/17 13:45:16;;;;;;;;;;;23.10;71.60;;;;;;5077729;28;20515;-38
2023/07/17 13:47:42;;;;;;;;;;;23.10;71.60;;;;;;5082884;28;20428;-38
2023/07/17 13:50:08;;;;;;;;;;;23.10;71.80;;;;;;5076091;28;19995;-38
2023/07/17 13:52:34;;;;;;;;;;;23.10;72.00;;;;;;5083241;28;19919;-38
2023/07/17 13:55:00;;;;;;;;;;;23.10;72.00;;;;;;5080347;28;19917;-38
2023/07/17 13:57:26;;;;;;;;;;;23.10;72.10;;;;;;5083140;28;19908;-38
2023/07/17 13:59:52;;;;;;;;;;;23.10;72.10;;;;;;5082650;28;19913;-38
2023/07/17 14:02:18;;;;;;;;;;;23.10;72.20;;;;;;5083133;28;19920;-38
2023/07/17 14:04:44;;;;;;;;;;;23.10;72.10;;;;;;5083225;28;19908;-37
2023/07/17 14:07:09;;;;;;;;;;;23.20;72.20;;;;;;5083050;28;19972;-39
2023/07/17 14:09:35;;;;;;;;;;;23.10;71.90;;;;;;5082102;28;19942;-38
2023/07/17 14:12:01;;;;;;;;;;;23.20;71.80;;;;;;5082561;28;20019;-38
2023/07/17 14:14:28;;;;;;;;;;;23.20;71.80;;;;;;5083199;28;20333;-38